Aviation Digital Data Service (ADDS)

Output produced by TAFs form (0542 UTC 05 September 2015)
found at http://aviationweather.gov/adds/tafs/
 
KCNY 042326Z 0500/0524 13009KT P6SM SCT090 SCT120 
     FM050200 15008KT P6SM VCSH BKN090 OVC150 
     FM050600 28004KT P6SM SCT100 BKN150 
     FM051200 18008KT P6SM SCT100 
     FM051800 20012G19KT P6SM SCT100